Ana Sayfa
METAR-TAF:

METAR-TAF

Havaalanları :

Şam Havalimanı

Şam, Suriye

Enlem: 33-25N, Boylam: 036-31E, yükseklik: 608 m

Güncel hava durumu gözlemi

Rapor saat 16:00 UTC de 32 dakika önce yapıldı.
Rüzgar batıdan 16 kt
Sıcaklık 29°C
Nem 22%
Basınç 1012 hPa
Görüş mesafesi 10 km veya daha fazla
1500 m altında bulut yok ve kümülonimbus yok

METAR: OSDI 231600Z 27016KT CAVOK 29/05 Q1012

Saat: 19:32 (16:32 UTC)

Tahmin

Ayın 23'si saat 12 UTC'den ayın 24'si saat 18 UTC'ye kadar geçerli Tahmin
Rüzgar güney/güneybatıdan 10 kt
Görüş mesafesi 10 km veya daha fazla
3000 ft yükseklikte az bulutlu
Geçici
ayın 23'si saat 12 UTC'den ayın 24'si saat 18 UTC'ye kadar
Rüzgar batı/güneybatıdan 10 kt ve 15 kt'a kadar ani rüzgarlar
Görüş mesafesi: 8000 m
3000 ft yükseklikte az bulutlu

TAF: OSDI 2312/2418 21010KT 9999 FEW030 TEMPO 2312/2418 24010G15KT 8000 FEW030

4.000'den fazla havaalanı için hava durumu gözlemleri ve tahminleri (METAR ve TAF raporları).

Kullanılabilir istasyonlar harita üzerinde sarı ve kırmızı noktalarla gösterilir.

İstasyonun adını görmek için fareyi noktanın üzerinde gezdirin.

Sonrasında hava gözlem ve tahminlerini görmek için tıklayın.

Haritayı değiştirmek için: yaklaştırmak için siyah artı işaretli yeşil düğmeye ve uzaklaştırmak için de eksi işaretli düğmeye hızla tıklayın; bitişik haritalar için yeşil okları kullanın.


METAR-TAF: